Time;durP1;ratioP1;P1;durP2;ratioP2;P2;SDS_P1;SDS_P2;PMS_P1;PMS_P2;Temp;Humidity;BMP_temperature;BMP_pressure;BME280_temperature;BME280_humidity;BME280_pressure;Samples;Min_cycle;Max_cycle;Signal;HPM_P1;HPM_P2
2023/12/06 07:13:49;;;;;;;124.80;56.28;;;;;;;;;;5093111;28;20325;-70
2023/12/06 07:16:17;;;;;;;129.70;54.72;;;;;;;;;;5110644;28;20051;-70
2023/12/06 07:18:45;;;;;;;129.48;54.58;;;;;;;;;;5110528;28;20424;-70
2023/12/06 07:21:12;;;;;;;112.35;43.80;;;;;;;;;;5110371;28;20439;-70
2023/12/06 07:23:40;;;;;;;107.80;42.47;;;;;;;;;;5110340;28;20074;-70
2023/12/06 07:26:08;;;;;;;113.75;46.75;;;;;;;;;;5110290;28;20043;-70
2023/12/06 07:28:35;;;;;;;115.82;46.65;;;;;;;;;;5110356;28;20454;-70
2023/12/06 07:31:03;;;;;;;111.63;45.90;;;;;;;;;;5110597;28;20044;-70
2023/12/06 07:33:31;;;;;;;110.53;43.33;;;;;;;;;;5110339;28;20093;-70
2023/12/06 07:35:58;;;;;;;115.75;45.53;;;;;;;;;;5110174;28;20047;-70
2023/12/06 07:38:28;;;;;;;108.28;44.58;;;;;;;;;;5110118;28;20101;-70
2023/12/06 07:40:56;;;;;;;107.40;44.85;;;;;;;;;;5110123;28;20450;-70
2023/12/06 07:43:25;;;;;;;99.28;41.65;;;;;;;;;;5109961;28;20047;-71
2023/12/06 07:45:53;;;;;;;94.07;38.75;;;;;;;;;;5109922;28;20071;-70
2023/12/06 07:48:20;;;;;;;70.57;32.38;;;;;;;;;;5109871;28;20043;-71
2023/12/06 07:50:50;;;;;;;82.63;36.78;;;;;;;;;;5091573;28;20044;-70
2023/12/06 07:53:18;;;;;;;70.03;34.08;;;;;;;;;;5109814;28;20075;-71
2023/12/06 07:55:45;;;;;;;78.13;36.40;;;;;;;;;;5109720;28;20552;-70
2023/12/06 07:58:14;;;;;;;67.53;34.28;;;;;;;;;;5109806;28;20086;-70
2023/12/06 08:00:42;;;;;;;67.68;32.17;;;;;;;;;;5075008;28;20040;-70
2023/12/06 08:03:10;;;;;;;57.65;31.20;;;;;;;;;;5109734;28;20071;-71
2023/12/06 08:05:38;;;;;;;54.97;30.85;;;;;;;;;;5109484;28;20114;-71
2023/12/06 08:08:06;;;;;;;48.53;28.30;;;;;;;;;;5109556;28;20126;-70
2023/12/06 08:10:33;;;;;;;45.45;26.27;;;;;;;;;;5109582;28;20036;-71
2023/12/06 08:13:01;;;;;;;44.97;26.20;;;;;;;;;;5105136;28;20040;-70
2023/12/06 08:15:29;;;;;;;54.20;28.25;;;;;;;;;;5095857;28;20118;-70
2023/12/06 08:17:57;;;;;;;42.60;25.25;;;;;;;;;;5095876;28;20064;-73
2023/12/06 08:20:24;;;;;;;46.15;26.00;;;;;;;;;;5095830;28;20081;-70
2023/12/06 08:22:52;;;;;;;128.18;71.07;;;;;;;;;;5095542;28;20070;-70
2023/12/06 08:25:19;;;;;;;44.92;26.08;;;;;;;;;;5095769;28;20040;-70
2023/12/06 08:27:47;;;;;;;37.03;21.10;;;;;;;;;;5095737;28;20044;-71
2023/12/06 08:30:15;;;;;;;35.38;21.75;;;;;;;;;;5095601;28;20040;-71
2023/12/06 08:32:42;;;;;;;34.40;21.92;;;;;;;;;;5096067;28;20051;-71
2023/12/06 08:35:10;;;;;;;41.75;21.55;;;;;;;;;;5095412;28;20097;-71
2023/12/06 08:37:38;;;;;;;39.83;22.25;;;;;;;;;;5095410;28;20044;-71
2023/12/06 08:40:08;;;;;;;32.50;19.67;;;;;;;;;;5095354;28;20124;-71
2023/12/06 08:42:35;;;;;;;39.03;21.73;;;;;;;;;;5095562;28;20072;-71
2023/12/06 08:45:03;;;;;;;38.70;21.65;;;;;;;;;;5095338;28;20075;-70
2023/12/06 08:47:32;;;;;;;34.65;19.17;;;;;;;;;;5095236;28;20127;-70
2023/12/06 08:50:00;;;;;;;30.35;18.27;;;;;;;;;;5095282;28;20401;-71
2023/12/06 08:52:32;;;;;;;32.13;17.60;;;;;;;;;;5095249;28;20489;-70
2023/12/06 08:54:59;;;;;;;30.38;17.42;;;;;;;;;;5095055;28;20119;-70
2023/12/06 08:57:27;;;;;;;38.22;20.00;;;;;;;;;;5095185;28;20051;-70
2023/12/06 08:59:55;;;;;;;28.40;15.32;;;;;;;;;;5095079;28;20089;-71
2023/12/06 09:02:22;;;;;;;27.75;15.38;;;;;;;;;;5094927;28;20043;-72
2023/12/06 09:04:51;;;;;;;36.08;20.20;;;;;;;;;;5094830;28;20048;-72
2023/12/06 09:07:18;;;;;;;26.25;15.18;;;;;;;;;;5076749;28;20078;-70
2023/12/06 09:09:46;;;;;;;29.00;17.15;;;;;;;;;;5094933;28;20048;-71
2023/12/06 09:12:14;;;;;;;27.27;16.17;;;;;;;;;;5094751;28;20447;-71
2023/12/06 09:14:42;;;;;;;24.88;15.43;;;;;;;;;;5094808;28;20093;-71
2023/12/06 09:17:09;;;;;;;22.60;13.80;;;;;;;;;;5094791;28;20052;-71
2023/12/06 09:19:39;;;;;;;25.40;16.42;;;;;;;;;;5094854;28;20135;-71
2023/12/06 09:22:08;;;;;;;26.92;17.35;;;;;;;;;;5094739;28;20042;-71
2023/12/06 09:24:36;;;;;;;24.27;15.25;;;;;;;;;;5094223;28;20059;-71
2023/12/06 09:27:03;;;;;;;24.98;15.80;;;;;;;;;;5094573;28;20119;-72
2023/12/06 09:29:31;;;;;;;24.50;15.10;;;;;;;;;;5094865;28;20046;-71
2023/12/06 09:31:59;;;;;;;23.83;14.95;;;;;;;;;;5094382;28;20075;-71
2023/12/06 09:34:26;;;;;;;27.15;14.63;;;;;;;;;;5094322;28;20044;-72
2023/12/06 09:37:07;;;;;;;26.95;17.45;;;;;;;;;;5094571;28;20044;-71
2023/12/06 09:39:34;;;;;;;31.58;18.00;;;;;;;;;;5094286;28;20101;-71
2023/12/06 09:42:03;;;;;;;25.85;17.10;;;;;;;;;;5094165;28;20089;-71
2023/12/06 09:44:31;;;;;;;25.80;16.00;;;;;;;;;;5094175;28;20489;-71
2023/12/06 09:46:59;;;;;;;23.58;16.15;;;;;;;;;;5094304;28;20110;-70
2023/12/06 09:49:27;;;;;;;28.67;18.48;;;;;;;;;;5093985;28;20098;-71
2023/12/06 09:51:58;;;;;;;31.88;19.17;;;;;;;;;;5094018;28;20051;-71
2023/12/06 09:54:26;;;;;;;35.78;20.98;;;;;;;;;;5093996;28;20174;-71
2023/12/06 09:56:54;;;;;;;27.83;16.73;;;;;;;;;;5093931;28;20481;-71
2023/12/06 09:59:22;;;;;;;27.73;15.88;;;;;;;;;;5094057;28;20043;-71
2023/12/06 10:01:49;;;;;;;21.30;14.27;;;;;;;;;;5094027;28;20067;-71
2023/12/06 10:04:17;;;;;;;25.35;14.65;;;;;;;;;;5093887;28;20467;-71
2023/12/06 10:06:45;;;;;;;29.73;18.63;;;;;;;;;;5093863;28;20036;-71
2023/12/06 10:09:13;;;;;;;29.08;17.88;;;;;;;;;;5093729;28;20492;-71
2023/12/06 10:11:41;;;;;;;23.67;14.50;;;;;;;;;;5075425;28;20145;-70
2023/12/06 10:14:18;;;;;;;23.85;14.98;;;;;;;;;;5093771;28;20118;-70
2023/12/06 10:16:46;;;;;;;24.30;14.60;;;;;;;;;;5093699;28;20064;-70
2023/12/06 10:19:19;;;;;;;24.83;15.32;;;;;;;;;;5093581;28;20131;-71
2023/12/06 10:21:47;;;;;;;19.95;13.13;;;;;;;;;;5093544;28;20424;-70
2023/12/06 10:24:15;;;;;;;20.20;13.18;;;;;;;;;;5093481;28;20416;-70
2023/12/06 10:26:43;;;;;;;22.45;12.77;;;;;;;;;;5093510;28;20036;-71
2023/12/06 10:29:12;;;;;;;28.50;15.60;;;;;;;;;;5093429;28;20036;-72
2023/12/06 10:31:45;;;;;;;26.77;17.52;;;;;;;;;;5093163;28;20071;-72
2023/12/06 10:34:14;;;;;;;23.45;14.43;;;;;;;;;;5093189;28;20047;-72
2023/12/06 10:36:42;;;;;;;19.42;13.07;;;;;;;;;;5093077;28;20036;-72
2023/12/06 10:39:14;;;;;;;17.90;10.75;;;;;;;;;;5093244;28;20044;-72
2023/12/06 10:41:42;;;;;;;23.48;15.55;;;;;;;;;;5093120;28;20036;-71
2023/12/06 10:44:10;;;;;;;16.10;11.05;;;;;;;;;;5093404;28;20040;-72
2023/12/06 10:46:38;;;;;;;15.73;10.55;;;;;;;;;;5093148;28;20066;-72
2023/12/06 10:49:06;;;;;;;13.05;7.40;;;;;;;;;;5093497;28;20397;-72
2023/12/06 10:51:35;;;;;;;14.57;8.75;;;;;;;;;;5093210;28;20032;-72
2023/12/06 10:54:04;;;;;;;12.15;7.40;;;;;;;;;;5092956;28;20044;-72
2023/12/06 10:56:32;;;;;;;17.50;9.18;;;;;;;;;;5093096;28;20040;-72
2023/12/06 10:59:03;;;;;;;14.25;6.65;;;;;;;;;;5093077;28;20040;-72
2023/12/06 11:01:32;;;;;;;16.15;8.88;;;;;;;;;;5092989;28;20036;-73
2023/12/06 11:04:01;;;;;;;13.60;7.00;;;;;;;;;;5092927;28;20047;-72
2023/12/06 11:06:29;;;;;;;13.93;6.93;;;;;;;;;;5092943;28;20040;-72
2023/12/06 11:09:35;;;;;;;13.57;7.28;;;;;;;;;;5092873;28;20040;-71
2023/12/06 11:12:09;;;;;;;11.73;6.95;;;;;;;;;;4991147;28;20072;-70
2023/12/06 11:14:51;;;;;;;7.75;4.80;;;;;;;;;;4991334;28;20050;-71
2023/12/06 11:17:39;;;;;;;7.97;4.82;;;;;;;;;;5056639;28;20082;-71
2023/12/06 11:20:09;;;;;;;10.48;4.53;;;;;;;;;;5076475;28;20416;-72
2023/12/06 11:22:38;;;;;;;7.25;5.10;;;;;;;;;;5092711;28;20067;-71
2023/12/06 11:25:21;;;;;;;7.93;5.82;;;;;;;;;;5092814;28;20139;-71
2023/12/06 11:27:50;;;;;;;8.57;5.57;;;;;;;;;;5092749;28;20120;-71
2023/12/06 11:30:18;;;;;;;12.20;6.75;;;;;;;;;;5092781;28;20048;-72
2023/12/06 11:32:47;;;;;;;11.48;7.22;;;;;;;;;;5074840;28;20127;-72
2023/12/06 11:35:14;;;;;;;15.13;7.25;;;;;;;;;;5092670;28;20040;-72
2023/12/06 11:37:51;;;;;;;10.32;6.25;;;;;;;;;;5092807;28;20044;-72
2023/12/06 11:40:20;;;;;;;9.13;5.32;;;;;;;;;;5092713;28;20040;-72
2023/12/06 11:42:57;;;;;;;8.65;5.40;;;;;;;;;;5075118;28;20052;-71
2023/12/06 11:45:25;;;;;;;10.93;6.32;;;;;;;;;;5092680;28;20516;-72
2023/12/06 11:47:53;;;;;;;14.35;6.60;;;;;;;;;;5092745;28;20458;-72
2023/12/06 11:50:22;;;;;;;10.90;5.90;;;;;;;;;;5096470;28;20044;-72
2023/12/06 11:52:49;;;;;;;9.48;5.68;;;;;;;;;;5096443;28;20048;-72
2023/12/06 11:55:20;;;;;;;11.70;5.28;;;;;;;;;;5096329;28;20109;-72
2023/12/06 11:58:07;;;;;;;8.77;5.40;;;;;;;;;;5096313;28;20079;-72
2023/12/06 12:00:35;;;;;;;8.48;5.07;;;;;;;;;;5096254;28;20036;-71
2023/12/06 12:03:05;;;;;;;8.10;5.25;;;;;;;;;;5096282;28;20044;-72
2023/12/06 12:05:33;;;;;;;8.40;5.18;;;;;;;;;;5096228;28;20036;-72
2023/12/06 12:08:02;;;;;;;10.60;4.95;;;;;;;;;;5077857;28;20489;-71
2023/12/06 12:10:30;;;;;;;8.82;5.00;;;;;;;;;;5096011;28;20036;-72
2023/12/06 12:12:59;;;;;;;10.95;5.82;;;;;;;;;;5095829;28;20052;-70
2023/12/06 12:15:27;;;;;;;10.15;5.90;;;;;;;;;;5095957;28;20040;-72
2023/12/06 12:17:55;;;;;;;9.18;5.57;;;;;;;;;;5095946;28;20050;-72
2023/12/06 12:20:23;;;;;;;12.00;6.25;;;;;;;;;;5096137;28;20455;-72
2023/12/06 12:22:51;;;;;;;11.35;6.82;;;;;;;;;;5096022;28;20040;-72
2023/12/06 12:25:19;;;;;;;10.70;6.53;;;;;;;;;;5077769;28;20114;-72
2023/12/06 12:27:48;;;;;;;15.40;8.55;;;;;;;;;;5078056;28;20047;-72
2023/12/06 12:30:15;;;;;;;19.40;10.15;;;;;;;;;;5095633;28;20046;-72
2023/12/06 12:32:46;;;;;;;10.38;7.00;;;;;;;;;;5095717;28;20040;-72
2023/12/06 12:35:15;;;;;;;10.57;6.15;;;;;;;;;;5095639;28;20036;-72
2023/12/06 12:37:44;;;;;;;11.90;6.93;;;;;;;;;;5095683;28;20125;-72
2023/12/06 12:40:12;;;;;;;11.05;7.18;;;;;;;;;;5077210;28;20044;-72
2023/12/06 12:42:40;;;;;;;12.38;6.65;;;;;;;;;;5095367;28;20063;-72
2023/12/06 12:45:15;;;;;;;11.30;6.63;;;;;;;;;;5095396;28;20138;-72
2023/12/06 12:47:43;;;;;;;9.57;6.53;;;;;;;;;;5095315;28;20111;-72
2023/12/06 12:50:17;;;;;;;10.07;6.68;;;;;;;;;;5095229;28;20036;-72
2023/12/06 12:52:45;;;;;;;12.27;6.93;;;;;;;;;;5095318;28;20051;-72
2023/12/06 12:55:12;;;;;;;11.75;6.60;;;;;;;;;;5095299;28;20039;-72
2023/12/06 12:57:41;;;;;;;14.98;7.20;;;;;;;;;;5095107;28;20052;-72
2023/12/06 13:00:19;;;;;;;13.35;8.23;;;;;;;;;;5095096;28;20109;-72
2023/12/06 13:02:48;;;;;;;11.98;6.70;;;;;;;;;;5095087;28;20469;-72
2023/12/06 13:05:16;;;;;;;11.10;6.78;;;;;;;;;;5095045;28;20039;-72
2023/12/06 13:07:44;;;;;;;11.48;6.10;;;;;;;;;;5095188;28;20025;-72
2023/12/06 13:10:13;;;;;;;8.23;5.65;;;;;;;;;;5094891;28;20504;-72
2023/12/06 13:12:41;;;;;;;8.63;6.10;;;;;;;;;;5094780;28;20405;-72
2023/12/06 13:15:08;;;;;;;10.00;6.22;;;;;;;;;;5094843;28;20127;-72
2023/12/06 13:17:36;;;;;;;10.85;5.97;;;;;;;;;;5094994;28;20382;-72
2023/12/06 13:20:06;;;;;;;13.85;6.72;;;;;;;;;;5094674;28;20044;-72
2023/12/06 13:22:34;;;;;;;12.98;7.07;;;;;;;;;;5094380;28;20074;-72
2023/12/06 13:25:04;;;;;;;10.77;6.97;;;;;;;;;;5094599;28;20493;-73
2023/12/06 13:27:32;;;;;;;11.68;7.40;;;;;;;;;;5077132;28;20401;-72
2023/12/06 13:30:00;;;;;;;12.75;8.27;;;;;;;;;;5094473;28;20485;-72
2023/12/06 13:32:28;;;;;;;14.95;9.05;;;;;;;;;;5094301;28;20120;-72
2023/12/06 13:34:56;;;;;;;12.80;8.68;;;;;;;;;;5094279;28;20040;-72
2023/12/06 13:37:23;;;;;;;14.73;8.80;;;;;;;;;;5094164;28;20044;-72
2023/12/06 13:39:52;;;;;;;11.85;7.95;;;;;;;;;;5094427;28;20047;-72
2023/12/06 13:42:20;;;;;;;14.05;7.93;;;;;;;;;;5094269;28;20036;-72
2023/12/06 13:44:47;;;;;;;13.48;8.80;;;;;;;;;;5094195;28;20071;-72
2023/12/06 13:47:15;;;;;;;13.95;8.77;;;;;;;;;;5094273;28;20043;-72
2023/12/06 13:49:42;;;;;;;14.52;9.07;;;;;;;;;;5094087;28;20074;-72
2023/12/06 13:52:12;;;;;;;16.88;10.30;;;;;;;;;;5094040;28;20040;-72
2023/12/06 13:54:40;;;;;;;13.48;9.43;;;;;;;;;;5094039;28;20040;-72
2023/12/06 13:57:08;;;;;;;13.40;8.23;;;;;;;;;;5093951;28;20506;-73
2023/12/06 13:59:36;;;;;;;11.63;7.07;;;;;;;;;;5093967;28;20378;-72
2023/12/06 14:02:04;;;;;;;12.95;7.95;;;;;;;;;;5093922;28;20425;-72
2023/12/06 14:04:33;;;;;;;14.27;9.20;;;;;;;;;;5093653;28;20535;-72
2023/12/06 14:07:01;;;;;;;15.80;10.25;;;;;;;;;;5093756;28;20110;-72
2023/12/06 14:09:30;;;;;;;14.90;10.23;;;;;;;;;;5093842;28;20064;-72
2023/12/06 14:12:01;;;;;;;19.05;11.70;;;;;;;;;;5093175;28;20046;-72
2023/12/06 14:14:29;;;;;;;17.27;10.63;;;;;;;;;;5075487;28;20040;-72
2023/12/06 14:16:57;;;;;;;20.63;13.88;;;;;;;;;;5093772;28;20123;-72
2023/12/06 14:19:24;;;;;;;18.60;10.77;;;;;;;;;;5093655;28;20447;-72
2023/12/06 14:21:52;;;;;;;19.05;9.55;;;;;;;;;;5075316;28;20516;-72
2023/12/06 14:24:20;;;;;;;16.15;9.68;;;;;;;;;;5075258;28;20573;-73
2023/12/06 14:26:47;;;;;;;17.10;8.82;;;;;;;;;;5093588;28;20059;-73
2023/12/06 14:29:15;;;;;;;15.00;9.60;;;;;;;;;;5093461;28;20044;-72
2023/12/06 14:31:43;;;;;;;13.18;8.75;;;;;;;;;;5093430;28;20051;-73
2023/12/06 14:34:10;;;;;;;20.77;11.32;;;;;;;;;;5093412;28;20044;-72
2023/12/06 14:36:39;;;;;;;25.52;14.77;;;;;;;;;;5093435;28;20101;-72
2023/12/06 14:39:11;;;;;;;20.55;12.05;;;;;;;;;;5093367;28;20040;-72
2023/12/06 14:53:27;;;;;;;19.55;12.85;;;;;;;;;;5070921;23;20489;-59
2023/12/06 14:55:54;;;;;;;26.25;16.52;;;;;;;;;;5057542;28;20511;-59
2023/12/06 14:58:22;;;;;;;16.90;11.20;;;;;;;;;;5069774;28;20080;-59
2023/12/06 15:00:50;;;;;;;18.00;10.90;;;;;;;;;;5069757;28;20037;-57
2023/12/06 15:03:17;;;;;;;17.83;10.80;;;;;;;;;;5069888;28;20084;-58
2023/12/06 15:05:45;;;;;;;21.52;13.25;;;;;;;;;;5069819;28;20490;-62
2023/12/06 15:08:13;;;;;;;27.35;16.33;;;;;;;;;;5069595;28;20036;-62
2023/12/06 15:10:40;;;;;;;25.63;15.65;;;;;;;;;;5052006;28;20404;-62
2023/12/06 15:13:08;;;;;;;24.33;15.70;;;;;;;;;;5061746;28;20057;-62
2023/12/06 15:15:35;;;;;;;23.52;16.42;;;;;;;;;;5056682;28;20083;-62
2023/12/06 15:18:03;;;;;;;24.27;16.00;;;;;;;;;;5038139;28;20060;-62
2023/12/06 15:20:31;;;;;;;23.05;15.32;;;;;;;;;;5054369;28;20379;-62
2023/12/06 15:22:59;;;;;;;23.75;15.23;;;;;;;;;;5056659;28;20513;-62
2023/12/06 15:25:27;;;;;;;22.13;15.63;;;;;;;;;;5054490;28;20120;-61
2023/12/06 15:27:55;;;;;;;55.72;27.70;;;;;;;;;;5055995;28;20040;-62
2023/12/06 15:30:22;;;;;;;43.45;25.65;;;;;;;;;;5055200;28;20039;-62
2023/12/06 15:32:50;;;;;;;32.58;19.67;;;;;;;;;;5056478;28;20038;-62
2023/12/06 15:35:17;;;;;;;36.25;22.00;;;;;;;;;;5057833;28;20041;-62
2023/12/06 15:37:45;;;;;;;35.28;21.42;;;;;;;;;;5060778;28;20036;-62
2023/12/06 15:40:13;;;;;;;26.55;17.15;;;;;;;;;;5057004;28;20125;-62
2023/12/06 15:42:42;;;;;;;27.45;17.35;;;;;;;;;;5057300;28;20098;-61
2023/12/06 15:45:10;;;;;;;24.67;16.15;;;;;;;;;;5039049;28;20060;-61
2023/12/06 15:47:37;;;;;;;22.00;14.93;;;;;;;;;;5056397;28;20478;-61
2023/12/06 15:50:05;;;;;;;47.47;25.45;;;;;;;;;;5056741;28;20048;-57
2023/12/06 15:52:33;;;;;;;56.38;30.95;;;;;;;;;;5054449;28;20041;-58
2023/12/06 15:55:00;;;;;;;67.55;34.17;;;;;;;;;;5032916;28;20055;-58
2023/12/06 15:57:28;;;;;;;52.00;28.38;;;;;;;;;;5036938;28;20091;-57
2023/12/06 15:59:56;;;;;;;39.95;22.77;;;;;;;;;;5035321;28;20065;-57
2023/12/06 16:02:24;;;;;;;44.38;24.35;;;;;;;;;;5035475;28;20102;-57
2023/12/06 16:04:51;;;;;;;43.33;27.05;;;;;;;;;;5019800;28;20394;-58
2023/12/06 16:07:19;;;;;;;35.67;23.27;;;;;;;;;;5035629;28;20119;-57
2023/12/06 16:09:47;;;;;;;35.08;21.65;;;;;;;;;;5035074;28;20123;-57
2023/12/06 16:12:25;;;;;;;29.40;17.10;;;;;;;;;;5036390;28;20062;-58
2023/12/06 16:14:53;;;;;;;27.48;15.93;;;;;;;;;;5035302;28;20068;-58
2023/12/06 16:17:21;;;;;;;34.53;17.98;;;;;;;;;;5032323;28;20483;-58
2023/12/06 16:19:48;;;;;;;31.35;18.42;;;;;;;;;;5034737;28;20930;-58
2023/12/06 16:22:16;;;;;;;30.83;17.85;;;;;;;;;;5036477;28;20045;-58
2023/12/06 16:24:44;;;;;;;32.67;18.58;;;;;;;;;;5034269;28;20039;-58
2023/12/06 16:27:11;;;;;;;29.05;17.35;;;;;;;;;;5016471;28;20132;-58
2023/12/06 16:29:39;;;;;;;31.45;17.55;;;;;;;;;;5034232;28;20067;-57
2023/12/06 16:32:06;;;;;;;33.08;17.73;;;;;;;;;;5033789;28;20041;-57
2023/12/06 16:34:34;;;;;;;29.23;17.15;;;;;;;;;;5020019;28;20087;-58
2023/12/06 16:37:02;;;;;;;30.40;18.00;;;;;;;;;;5032877;28;20052;-58
2023/12/06 16:39:29;;;;;;;32.97;18.10;;;;;;;;;;5017650;28;20041;-58
2023/12/06 16:41:57;;;;;;;37.10;20.75;;;;;;;;;;5032482;28;20129;-58
2023/12/06 16:44:26;;;;;;;35.58;20.83;;;;;;;;;;5015093;28;20049;-58
2023/12/06 16:46:54;;;;;;;37.10;21.15;;;;;;;;;;5033060;28;20070;-59
2023/12/06 16:49:22;;;;;;;38.97;22.15;;;;;;;;;;5018344;28;20036;-58
2023/12/06 16:51:49;;;;;;;39.40;22.85;;;;;;;;;;5035378;28;20042;-58
2023/12/06 16:54:17;;;;;;;37.88;22.50;;;;;;;;;;5039964;28;20033;-58
2023/12/06 16:56:44;;;;;;;36.53;22.73;;;;;;;;;;5034275;28;20045;-58
2023/12/06 16:59:12;;;;;;;37.20;23.17;;;;;;;;;;5036188;28;20045;-58
2023/12/06 17:01:40;;;;;;;36.67;22.95;;;;;;;;;;5034369;28;20417;-58
2023/12/06 17:04:08;;;;;;;38.92;23.38;;;;;;;;;;5020271;28;20038;-56
2023/12/06 17:06:36;;;;;;;37.83;20.90;;;;;;;;;;5034603;28;20094;-58
2023/12/06 17:09:03;;;;;;;35.97;21.48;;;;;;;;;;5038732;28;20056;-57
2023/12/06 17:11:31;;;;;;;35.88;22.75;;;;;;;;;;5035404;28;20072;-57
2023/12/06 17:13:59;;;;;;;32.78;19.50;;;;;;;;;;5032739;28;20446;-57
2023/12/06 17:16:27;;;;;;;33.50;20.45;;;;;;;;;;5035194;28;20405;-57
2023/12/06 17:18:59;;;;;;;33.83;21.10;;;;;;;;;;5032188;28;20057;-58
2023/12/06 17:21:31;;;;;;;35.75;20.58;;;;;;;;;;5032965;28;20042;-58
2023/12/06 17:24:01;;;;;;;32.15;18.52;;;;;;;;;;5032339;28;20048;-58
2023/12/06 17:26:32;;;;;;;39.25;19.45;;;;;;;;;;5032953;28;20187;-58
2023/12/06 17:29:13;;;;;;;31.02;19.23;;;;;;;;;;5035261;28;20140;-58
2023/12/06 17:31:40;;;;;;;34.10;19.15;;;;;;;;;;5033505;28;20068;-58
2023/12/06 17:34:08;;;;;;;31.60;19.10;;;;;;;;;;5033468;28;20041;-57
2023/12/06 17:36:36;;;;;;;32.05;19.33;;;;;;;;;;5035728;28;20670;-58
2023/12/06 17:39:04;;;;;;;31.73;19.63;;;;;;;;;;5016483;28;20136;-58
2023/12/06 17:41:32;;;;;;;34.20;20.48;;;;;;;;;;5033247;28;20453;-58
2023/12/06 17:44:00;;;;;;;36.83;20.60;;;;;;;;;;5034557;28;20041;-58
2023/12/06 17:46:28;;;;;;;33.47;20.65;;;;;;;;;;5034181;28;20506;-58
2023/12/06 17:48:56;;;;;;;36.75;21.55;;;;;;;;;;5016966;28;20052;-58
2023/12/06 17:51:25;;;;;;;31.33;20.52;;;;;;;;;;5031567;28;20112;-58
2023/12/06 17:53:53;;;;;;;31.27;20.67;;;;;;;;;;5033842;28;20056;-58
2023/12/06 17:56:21;;;;;;;35.55;22.02;;;;;;;;;;5031775;28;20126;-58
2023/12/06 17:58:49;;;;;;;37.95;22.00;;;;;;;;;;5031322;28;20049;-58
2023/12/06 18:01:18;;;;;;;37.88;21.27;;;;;;;;;;5040859;28;20037;-58
2023/12/06 18:03:46;;;;;;;38.58;21.10;;;;;;;;;;5035322;28;20041;-57
2023/12/06 18:06:14;;;;;;;33.22;20.65;;;;;;;;;;5033141;28;20119;-58
2023/12/06 18:08:42;;;;;;;32.10;20.13;;;;;;;;;;5036116;28;20865;-59
2023/12/06 18:11:10;;;;;;;37.90;21.15;;;;;;;;;;5033126;28;20041;-58
2023/12/06 18:13:41;;;;;;;33.72;20.25;;;;;;;;;;5035680;28;20037;-57
2023/12/06 18:16:08;;;;;;;37.80;20.50;;;;;;;;;;5032062;28;20383;-57
2023/12/06 18:18:39;;;;;;;39.55;23.02;;;;;;;;;;5035029;28;20120;-56
2023/12/06 18:21:07;;;;;;;36.70;20.88;;;;;;;;;;5031607;28;20069;-58
2023/12/06 18:23:35;;;;;;;31.45;19.45;;;;;;;;;;5035492;28;20048;-57
2023/12/06 18:26:03;;;;;;;35.45;20.77;;;;;;;;;;5032043;28;20107;-57
2023/12/06 18:28:30;;;;;;;37.35;20.60;;;;;;;;;;5029755;28;20380;-57
2023/12/06 18:30:58;;;;;;;38.65;20.23;;;;;;;;;;5033690;28;20098;-57
2023/12/06 18:33:26;;;;;;;33.63;20.15;;;;;;;;;;5033943;28;20047;-58
2023/12/06 18:35:54;;;;;;;35.55;20.45;;;;;;;;;;5032891;28;20037;-58
2023/12/06 18:38:23;;;;;;;39.03;21.05;;;;;;;;;;5031411;28;20148;-58
2023/12/06 18:40:51;;;;;;;38.60;20.65;;;;;;;;;;5033506;28;20064;-57
2023/12/06 18:43:19;;;;;;;39.28;21.92;;;;;;;;;;5034062;28;20061;-57
2023/12/06 18:45:47;;;;;;;41.45;23.33;;;;;;;;;;5034309;28;20505;-57
2023/12/06 18:48:14;;;;;;;54.95;27.70;;;;;;;;;;5035247;28;20422;-57
2023/12/06 18:50:42;;;;;;;40.47;23.65;;;;;;;;;;5034608;28;20417;-58
2023/12/06 18:53:10;;;;;;;48.17;25.02;;;;;;;;;;5034066;28;20050;-57
2023/12/06 18:55:37;;;;;;;43.97;23.55;;;;;;;;;;5033147;28;20045;-57
2023/12/06 18:58:05;;;;;;;39.90;23.48;;;;;;;;;;5015331;28;20048;-58
2023/12/06 19:00:33;;;;;;;40.88;23.02;;;;;;;;;;5035889;28;20073;-57
2023/12/06 19:03:03;;;;;;;37.95;21.92;;;;;;;;;;5034582;28;20037;-57
2023/12/06 19:05:30;;;;;;;38.33;21.05;;;;;;;;;;5034644;28;20510;-58
2023/12/06 19:07:59;;;;;;;36.30;20.67;;;;;;;;;;5015157;28;20060;-58
2023/12/06 19:10:26;;;;;;;43.50;23.60;;;;;;;;;;5031029;28;20613;-57
2023/12/06 19:12:54;;;;;;;48.47;27.50;;;;;;;;;;5034922;28;20047;-58
2023/12/06 19:15:23;;;;;;;41.25;23.95;;;;;;;;;;5036162;28;20033;-58
2023/12/06 19:17:52;;;;;;;47.30;25.52;;;;;;;;;;5033071;28;20143;-58
2023/12/06 19:20:20;;;;;;;44.83;23.58;;;;;;;;;;5038334;28;20136;-57
2023/12/06 19:22:47;;;;;;;40.15;21.50;;;;;;;;;;5013883;28;20050;-58
2023/12/06 19:25:15;;;;;;;36.55;21.17;;;;;;;;;;5000515;28;20092;-58
2023/12/06 19:27:45;;;;;;;38.63;22.30;;;;;;;;;;5031516;28;20049;-58
2023/12/06 19:30:13;;;;;;;36.28;22.23;;;;;;;;;;5036177;28;20051;-58
2023/12/06 19:32:43;;;;;;;34.95;20.83;;;;;;;;;;5039484;28;20486;-58
2023/12/06 19:35:10;;;;;;;26.17;14.75;;;;;;;;;;5035139;28;20045;-58
2023/12/06 19:37:38;;;;;;;24.23;13.75;;;;;;;;;;5035366;28;20037;-58
2023/12/06 19:40:10;;;;;;;20.52;12.05;;;;;;;;;;5036231;28;20144;-57
2023/12/06 19:42:38;;;;;;;22.27;12.23;;;;;;;;;;5039479;28;20042;-57
2023/12/06 19:45:07;;;;;;;32.00;12.68;;;;;;;;;;5035077;28;20044;-57
2023/12/06 19:47:35;;;;;;;21.08;8.55;;;;;;;;;;5036740;28;20049;-57
2023/12/06 19:50:04;;;;;;;22.95;12.50;;;;;;;;;;5037354;28;20049;-56
2023/12/06 19:52:32;;;;;;;23.55;12.18;;;;;;;;;;5036315;28;20045;-58
2023/12/06 19:54:59;;;;;;;24.55;11.95;;;;;;;;;;5031375;28;20056;-57
2023/12/06 19:57:27;;;;;;;23.17;11.95;;;;;;;;;;5036014;28;20073;-57
2023/12/06 19:59:54;;;;;;;18.40;10.20;;;;;;;;;;5035941;28;20428;-58
2023/12/06 20:02:22;;;;;;;20.52;10.68;;;;;;;;;;5035397;28;20112;-57
2023/12/06 20:04:50;;;;;;;24.90;12.80;;;;;;;;;;5035028;28;20466;-58
2023/12/06 20:07:18;;;;;;;29.50;13.93;;;;;;;;;;5037952;28;20053;-58
2023/12/06 20:09:46;;;;;;;25.58;12.90;;;;;;;;;;5034970;28;20517;-58
2023/12/06 20:12:15;;;;;;;24.33;13.75;;;;;;;;;;5034695;28;20502;-58
2023/12/06 20:14:49;;;;;;;24.00;13.65;;;;;;;;;;5037824;28;20045;-58
2023/12/06 20:17:17;;;;;;;25.63;13.27;;;;;;;;;;5034707;28;20120;-57
2023/12/06 20:19:45;;;;;;;23.92;12.15;;;;;;;;;;5038860;28;20095;-57
2023/12/06 20:22:13;;;;;;;26.13;12.90;;;;;;;;;;5036909;28;20040;-58
2023/12/06 20:24:41;;;;;;;22.08;11.10;;;;;;;;;;5037409;28;20156;-58
2023/12/06 20:27:09;;;;;;;26.98;12.60;;;;;;;;;;5041589;28;20042;-56
2023/12/06 20:29:37;;;;;;;24.05;12.90;;;;;;;;;;5041429;28;20557;-56
2023/12/06 20:32:05;;;;;;;22.90;12.15;;;;;;;;;;5037367;28;20065;-56
2023/12/06 20:34:32;;;;;;;23.42;12.55;;;;;;;;;;5039186;28;20474;-54
2023/12/06 20:37:00;;;;;;;25.98;12.90;;;;;;;;;;5042076;28;20048;-57
2023/12/06 20:39:29;;;;;;;26.70;13.38;;;;;;;;;;5041566;28;20091;-57
2023/12/06 20:41:57;;;;;;;25.50;13.25;;;;;;;;;;5039150;28;20102;-57
2023/12/06 20:44:24;;;;;;;23.88;13.55;;;;;;;;;;5022204;28;20503;-56
2023/12/06 20:46:52;;;;;;;26.77;13.02;;;;;;;;;;5044273;28;20037;-57
2023/12/06 20:49:20;;;;;;;21.45;11.20;;;;;;;;;;5041200;28;20041;-57
2023/12/06 20:51:48;;;;;;;29.52;13.57;;;;;;;;;;5040057;28;20529;-56
2023/12/06 20:54:16;;;;;;;27.20;13.35;;;;;;;;;;5039756;28;20040;-56
2023/12/06 20:56:45;;;;;;;29.30;14.07;;;;;;;;;;5041717;28;20041;-56
2023/12/06 20:59:12;;;;;;;26.55;15.25;;;;;;;;;;5021914;28;20037;-56
2023/12/06 21:01:41;;;;;;;30.40;16.20;;;;;;;;;;5042252;28;20041;-55
2023/12/06 21:04:09;;;;;;;28.70;16.42;;;;;;;;;;5042558;28;20482;-56
2023/12/06 21:06:37;;;;;;;31.48;17.60;;;;;;;;;;5041254;28;20486;-57
2023/12/06 21:09:05;;;;;;;25.58;15.75;;;;;;;;;;5037964;28;20041;-56
2023/12/06 21:11:33;;;;;;;28.25;15.90;;;;;;;;;;5042597;28;20040;-56
2023/12/06 21:14:00;;;;;;;27.58;14.68;;;;;;;;;;5037569;28;20420;-56
2023/12/06 21:16:28;;;;;;;25.13;14.23;;;;;;;;;;5038466;28;20075;-56
2023/12/06 21:18:56;;;;;;;23.27;13.20;;;;;;;;;;5041746;28;20041;-53
2023/12/06 21:21:24;;;;;;;20.60;11.82;;;;;;;;;;5038315;28;20041;-56
2023/12/06 21:23:51;;;;;;;25.92;14.07;;;;;;;;;;5040134;28;20045;-54
2023/12/06 21:26:19;;;;;;;24.17;12.77;;;;;;;;;;5041070;28;20099;-56
2023/12/06 21:28:47;;;;;;;28.65;16.20;;;;;;;;;;5040757;28;20042;-56
2023/12/06 21:31:15;;;;;;;28.13;15.93;;;;;;;;;;5039061;28;20037;-54
2023/12/06 21:33:43;;;;;;;22.35;12.25;;;;;;;;;;5036759;28;20608;-57
2023/12/06 21:36:11;;;;;;;26.02;13.48;;;;;;;;;;5038805;28;20029;-57
2023/12/06 21:38:38;;;;;;;22.75;13.43;;;;;;;;;;5040754;28;20120;-56
2023/12/06 21:41:06;;;;;;;24.73;14.85;;;;;;;;;;5039770;28;20037;-55
2023/12/06 21:43:33;;;;;;;28.02;14.32;;;;;;;;;;5018768;28;20569;-56
2023/12/06 21:46:01;;;;;;;30.75;15.55;;;;;;;;;;5021389;28;20041;-57
2023/12/06 21:48:28;;;;;;;27.50;15.05;;;;;;;;;;5038998;28;20092;-57
2023/12/06 21:50:57;;;;;;;27.27;15.10;;;;;;;;;;5036291;28;20040;-55
2023/12/06 21:53:27;;;;;;;25.38;13.55;;;;;;;;;;5037558;28;20123;-56